createdAt,value
2022-10-05T00:00:14.401Z,6.90
2022-10-05T00:02:56.973Z,3.92
2022-10-05T00:05:39.926Z,6.68
2022-10-05T00:08:25.230Z,4.55
2022-10-05T00:11:08.403Z,6.07
2022-10-05T00:13:50.986Z,5.63
2022-10-05T00:16:35.676Z,10.00
2022-10-05T00:19:21.922Z,6.68
2022-10-05T00:22:11.113Z,6.18
2022-10-05T00:24:59.100Z,5.63
2022-10-05T00:27:41.855Z,5.10
2022-10-05T00:30:32.404Z,5.07
2022-10-05T00:33:14.964Z,6.93
2022-10-05T00:35:57.557Z,6.47
2022-10-05T00:38:40.660Z,6.28
2022-10-05T00:41:28.882Z,4.28
2022-10-05T00:44:22.126Z,6.30
2022-10-05T00:47:09.898Z,7.80
2022-10-05T00:50:02.661Z,5.55
2022-10-05T00:52:51.173Z,5.28
2022-10-05T00:55:38.618Z,6.43
2022-10-05T00:58:27.387Z,8.05
2022-10-05T01:01:11.765Z,5.53
2022-10-05T01:04:01.531Z,8.07
2022-10-05T01:06:48.391Z,5.57
2022-10-05T01:09:36.858Z,6.40
2022-10-05T01:12:23.569Z,8.45
2022-10-05T01:15:09.837Z,6.63
2022-10-05T01:17:55.523Z,6.75
2022-10-05T01:20:42.430Z,7.60
2022-10-05T01:23:39.864Z,6.57
2022-10-05T01:26:36.594Z,10.98
2022-10-05T01:29:23.583Z,5.55
2022-10-05T01:32:08.356Z,4.70
2022-10-05T01:34:54.520Z,5.55
2022-10-05T01:37:42.913Z,3.53
2022-10-05T01:40:31.218Z,6.90
2022-10-05T01:43:20.875Z,7.20
2022-10-05T01:46:08.177Z,4.82
2022-10-05T01:48:55.800Z,4.63
2022-10-05T01:51:42.821Z,4.82
2022-10-05T01:54:33.397Z,5.57
2022-10-05T01:57:30.018Z,3.80
2022-10-05T02:00:14.226Z,4.88
2022-10-05T02:03:01.195Z,7.47
2022-10-05T02:05:46.815Z,4.50
2022-10-05T02:08:33.156Z,5.35
2022-10-05T02:11:16.235Z,4.53
2022-10-05T02:14:01.062Z,6.28
2022-10-05T02:16:47.611Z,7.30
2022-10-05T02:19:35.197Z,5.32
2022-10-05T02:22:23.075Z,4.60
2022-10-05T02:25:08.646Z,5.40
2022-10-05T02:27:54.216Z,4.35
2022-10-05T02:30:41.173Z,6.50
2022-10-05T02:33:28.501Z,5.30
2022-10-05T02:36:16.353Z,8.38
2022-10-05T02:39:06.908Z,6.78
2022-10-05T02:41:52.413Z,3.95
2022-10-05T02:44:39.913Z,5.65
2022-10-05T02:47:27.983Z,6.40
2022-10-05T02:50:14.618Z,4.72
2022-10-05T02:53:05.417Z,6.40
2022-10-05T02:55:51.889Z,6.18
2022-10-05T02:58:40.049Z,7.13
2022-10-05T03:01:25.845Z,4.78
2022-10-05T03:04:13.972Z,5.88
2022-10-05T03:07:02.550Z,4.13
2022-10-05T03:09:50.315Z,8.55
2022-10-05T03:12:40.393Z,8.30
2022-10-05T03:15:42.098Z,4.75
2022-10-05T03:18:30.946Z,4.57
2022-10-05T03:21:21.827Z,6.57
2022-10-05T03:24:11.292Z,5.05
2022-10-05T03:26:58.726Z,5.13
2022-10-05T03:29:43.557Z,4.90
2022-10-05T03:32:33.352Z,6.07
2022-10-05T03:35:19.140Z,4.55
2022-10-05T03:38:07.291Z,6.68
2022-10-05T03:40:54.742Z,4.45
2022-10-05T03:43:53.003Z,6.18
2022-10-05T03:46:43.840Z,5.68
2022-10-05T03:49:32.997Z,6.57
2022-10-05T03:52:17.220Z,3.90
2022-10-05T03:55:03.846Z,5.03
2022-10-05T03:57:48.064Z,5.10
2022-10-05T04:00:33.181Z,4.13
2022-10-05T04:03:21.507Z,4.72
2022-10-05T04:06:08.425Z,7.38
2022-10-05T04:08:53.195Z,7.55
2022-10-05T04:11:40.196Z,5.57
2022-10-05T04:14:26.817Z,5.75
2022-10-05T04:17:14.198Z,5.93
2022-10-05T04:20:00.107Z,5.82
2022-10-05T04:22:46.087Z,8.18
2022-10-05T04:25:30.675Z,6.05
2022-10-05T04:28:16.943Z,9.63
2022-10-05T04:31:01.364Z,6.30
2022-10-05T04:33:53.284Z,6.32
2022-10-05T04:36:42.158Z,6.85
2022-10-05T04:39:31.548Z,7.18
2022-10-05T04:42:16.347Z,6.18
2022-10-05T04:45:05.623Z,6.47
2022-10-05T04:48:06.963Z,7.53
2022-10-05T04:50:56.237Z,6.28
2022-10-05T04:53:43.755Z,6.90
2022-10-05T04:56:31.006Z,5.13
2022-10-05T04:59:24.845Z,5.47
2022-10-05T05:02:11.674Z,7.18
2022-10-05T05:05:19.168Z,6.43
2022-10-05T05:08:08.747Z,6.00
2022-10-05T05:10:55.257Z,6.18
2022-10-05T05:13:48.343Z,7.05
2022-10-05T05:16:33.993Z,5.80
2022-10-05T05:19:29.741Z,6.65
2022-10-05T05:22:17.808Z,6.28
2022-10-05T05:25:20.233Z,6.50
2022-10-05T05:28:07.469Z,6.93
2022-10-05T05:30:53.701Z,7.97
2022-10-05T05:33:41.965Z,5.65
2022-10-05T05:36:31.159Z,7.35
2022-10-05T05:39:25.027Z,8.25
2022-10-05T05:42:17.740Z,7.38
2022-10-05T05:45:07.354Z,9.65
2022-10-05T05:47:52.622Z,9.02
2022-10-05T05:50:42.234Z,6.85
2022-10-05T05:53:28.149Z,7.50
2022-10-05T05:56:12.608Z,5.80
2022-10-05T05:58:58.561Z,8.52
2022-10-05T06:01:45.047Z,7.57
2022-10-05T06:04:33.000Z,5.28
2022-10-05T06:07:17.814Z,9.00
2022-10-05T06:10:04.291Z,5.78
2022-10-05T06:12:58.449Z,5.70
2022-10-05T06:15:48.373Z,7.07
2022-10-05T06:18:33.716Z,5.93
2022-10-05T06:21:19.702Z,8.90
2022-10-05T06:24:04.990Z,6.50
2022-10-05T06:27:08.720Z,6.38
2022-10-05T06:30:00.414Z,7.75
2022-10-05T06:32:56.808Z,7.00
2022-10-05T06:35:47.481Z,6.72
2022-10-05T06:38:36.136Z,12.73
2022-10-05T06:41:24.263Z,5.70
2022-10-05T06:44:09.749Z,6.00
2022-10-05T06:47:06.798Z,8.13
2022-10-05T06:50:09.255Z,6.97
2022-10-05T06:53:08.846Z,10.23
2022-10-05T06:55:53.266Z,6.13
2022-10-05T06:58:47.000Z,6.72
2022-10-05T07:01:34.731Z,5.60
2022-10-05T07:04:24.120Z,6.30
2022-10-05T07:07:13.181Z,9.70
2022-10-05T07:10:02.807Z,5.88
2022-10-05T07:12:50.860Z,8.77
2022-10-05T07:15:42.111Z,7.55
2022-10-05T07:18:40.696Z,11.50
2022-10-05T07:21:28.016Z,8.73
2022-10-05T07:24:21.689Z,6.47
2022-10-05T07:27:10.876Z,7.13
2022-10-05T07:29:58.956Z,9.63
2022-10-05T07:32:46.833Z,6.95
2022-10-05T07:35:53.958Z,7.00
2022-10-05T07:38:38.911Z,6.05
2022-10-05T07:41:27.232Z,7.50
2022-10-05T07:44:13.434Z,8.18
2022-10-05T07:47:01.292Z,7.60
2022-10-05T07:49:48.186Z,7.68
2022-10-05T07:52:34.869Z,9.35
2022-10-05T07:55:20.539Z,6.15
2022-10-05T07:58:11.274Z,7.18
2022-10-05T08:01:01.096Z,6.25
2022-10-05T08:03:53.711Z,7.43
2022-10-05T08:06:41.574Z,8.18
2022-10-05T08:09:39.161Z,7.10
2022-10-05T08:12:29.647Z,7.75
2022-10-05T08:15:15.904Z,6.28
2022-10-05T08:18:00.491Z,6.65
2022-10-05T08:20:46.482Z,6.55
2022-10-05T08:23:32.285Z,6.10
2022-10-05T08:26:18.577Z,6.32
2022-10-05T08:29:10.249Z,7.22
2022-10-05T08:31:59.761Z,5.47
2022-10-05T08:34:48.809Z,7.97
2022-10-05T08:37:35.195Z,6.55
2022-10-05T08:40:29.593Z,5.88
2022-10-05T08:43:17.560Z,6.15
2022-10-05T08:46:18.133Z,6.78
2022-10-05T08:49:19.470Z,7.63
2022-10-05T08:52:20.944Z,7.07
2022-10-05T08:55:21.242Z,7.13
2022-10-05T08:58:14.110Z,8.20
2022-10-05T09:01:00.231Z,5.75
2022-10-05T09:04:00.830Z,10.15
2022-10-05T09:06:51.094Z,12.57
2022-10-05T09:09:51.449Z,8.48
2022-10-05T09:12:44.308Z,5.72
2022-10-05T09:15:34.971Z,5.78
2022-10-05T09:18:39.857Z,11.32
2022-10-05T09:21:31.871Z,6.18
2022-10-05T09:24:24.849Z,6.05
2022-10-05T09:27:11.073Z,5.97
2022-10-05T09:30:13.761Z,6.32
2022-10-05T09:33:14.534Z,7.95
2022-10-05T09:36:20.653Z,5.43
2022-10-05T09:39:17.864Z,6.35
2022-10-05T09:42:22.066Z,7.00
2022-10-05T09:45:21.486Z,5.22
2022-10-05T09:48:18.518Z,5.22
2022-10-05T09:51:19.684Z,5.43
2022-10-05T09:54:35.570Z,5.68
2022-10-05T09:57:27.750Z,7.20
2022-10-05T10:00:26.545Z,5.70
2022-10-05T10:03:21.223Z,4.90
2022-10-05T10:06:14.806Z,6.28
2022-10-05T10:09:05.559Z,8.40
2022-10-05T10:12:00.423Z,6.10
2022-10-05T10:14:59.280Z,6.57
2022-10-05T10:17:55.052Z,6.57
2022-10-05T10:20:43.778Z,5.95
2022-10-05T10:23:30.853Z,5.32
2022-10-05T10:26:23.240Z,6.30
2022-10-05T10:32:28.287Z,5.82
2022-10-05T10:35:27.789Z,9.70
2022-10-05T10:38:26.554Z,5.57
2022-10-05T10:41:27.218Z,4.95
2022-10-05T10:44:28.439Z,4.47
2022-10-05T10:47:23.776Z,6.65
2022-10-05T10:50:30.332Z,6.53
2022-10-05T10:53:32.498Z,7.07
2022-10-05T10:56:24.857Z,5.85
2022-10-05T10:59:27.976Z,4.72
2022-10-05T11:02:37.249Z,5.47
2022-10-05T11:05:31.948Z,4.05
2022-10-05T11:08:29.750Z,4.95
2022-10-05T11:11:18.553Z,6.22
2022-10-05T11:14:12.406Z,4.55
2022-10-05T11:17:09.534Z,7.32
2022-10-05T11:20:10.601Z,5.20
2022-10-05T11:22:56.086Z,4.93
2022-10-05T11:25:53.648Z,6.95
2022-10-05T11:28:42.786Z,8.13
2022-10-05T11:31:46.060Z,4.55
2022-10-05T11:34:55.572Z,8.38
2022-10-05T11:37:45.631Z,7.28
2022-10-05T11:40:39.958Z,6.38
2022-10-05T11:43:41.812Z,4.38
2022-10-05T11:46:28.852Z,5.32
2022-10-05T11:49:25.675Z,5.65
2022-10-05T11:52:12.162Z,5.45
2022-10-05T11:55:16.905Z,5.38
2022-10-05T11:58:01.660Z,3.63
2022-10-05T12:00:46.107Z,4.30
2022-10-05T12:03:35.099Z,6.25
2022-10-05T12:06:23.495Z,5.57
2022-10-05T12:09:14.013Z,5.57
2022-10-05T12:12:03.796Z,5.00
2022-10-05T12:14:51.415Z,4.10
2022-10-05T12:17:37.613Z,5.50
2022-10-05T12:20:26.150Z,3.53
2022-10-05T12:23:14.343Z,3.45
2022-10-05T12:26:01.083Z,5.35
2022-10-05T12:28:46.756Z,2.78
2022-10-05T12:31:33.522Z,2.75
2022-10-05T12:34:22.293Z,5.57
2022-10-05T12:37:12.545Z,4.40
2022-10-05T12:39:58.801Z,4.05
2022-10-05T12:42:43.120Z,3.15
2022-10-05T12:45:32.884Z,2.50
2022-10-05T12:48:20.538Z,3.67
2022-10-05T12:51:06.475Z,4.20
2022-10-05T12:53:56.532Z,2.40
2022-10-05T12:56:44.162Z,3.65
2022-10-05T12:59:35.005Z,2.67
2022-10-05T13:02:24.061Z,2.80
2022-10-05T13:05:15.173Z,2.58
2022-10-05T13:08:03.333Z,2.50
2022-10-05T13:10:49.699Z,2.22
2022-10-05T13:13:38.038Z,3.92
2022-10-05T13:16:25.747Z,3.25
2022-10-05T13:19:21.198Z,2.95
2022-10-05T13:22:22.226Z,3.00
2022-10-05T13:25:10.036Z,3.15
2022-10-05T13:27:56.912Z,4.22
2022-10-05T13:30:42.063Z,3.20
2022-10-05T13:33:27.827Z,5.25
2022-10-05T13:36:15.745Z,3.47
2022-10-05T13:39:00.671Z,2.42
2022-10-05T13:41:48.060Z,7.30
2022-10-05T13:44:35.006Z,3.80
2022-10-05T13:47:23.058Z,1.92
2022-10-05T13:50:08.480Z,3.92
2022-10-05T13:52:56.528Z,3.45
2022-10-05T13:55:44.563Z,4.68
2022-10-05T13:58:32.391Z,4.20
2022-10-05T14:01:18.365Z,5.93
2022-10-05T14:04:05.296Z,3.88
2022-10-05T14:06:48.542Z,4.95
2022-10-05T14:09:32.450Z,3.90
2022-10-05T14:12:19.724Z,3.67
2022-10-05T14:15:13.819Z,6.47
2022-10-05T14:17:58.051Z,4.38
2022-10-05T14:20:40.788Z,3.25
2022-10-05T14:23:26.991Z,2.15
2022-10-05T14:26:18.676Z,3.00
2022-10-05T14:29:02.506Z,2.45
2022-10-05T14:31:52.543Z,2.50
2022-10-05T14:34:37.438Z,3.72
2022-10-05T14:37:20.771Z,2.20
2022-10-05T14:40:21.708Z,3.05
2022-10-05T14:43:18.448Z,4.70
2022-10-05T14:46:02.726Z,3.97
2022-10-05T14:48:46.074Z,2.47
2022-10-05T14:51:32.711Z,2.92
2022-10-05T14:54:27.482Z,3.50
2022-10-05T14:57:18.129Z,3.75
2022-10-05T15:00:03.903Z,2.28
2022-10-05T15:03:04.475Z,4.00
2022-10-05T15:05:49.741Z,2.63
2022-10-05T15:08:41.998Z,4.22
2022-10-05T15:11:30.425Z,4.18
2022-10-05T15:14:16.815Z,1.90
2022-10-05T15:17:01.775Z,2.35
2022-10-05T15:19:50.944Z,3.80
2022-10-05T15:22:40.585Z,2.67
2022-10-05T15:25:30.665Z,4.88
2022-10-05T15:28:17.832Z,5.90
2022-10-05T15:31:03.117Z,2.63
2022-10-05T15:33:50.790Z,6.82
2022-10-05T15:36:36.778Z,3.92
2022-10-05T15:39:24.107Z,2.50
2022-10-05T15:42:11.249Z,3.65
2022-10-05T15:44:58.985Z,3.70
2022-10-05T15:47:49.053Z,4.97
2022-10-05T15:50:36.206Z,3.45
2022-10-05T15:53:22.336Z,1.80
2022-10-05T15:56:06.531Z,3.08
2022-10-05T15:58:56.826Z,3.08
2022-10-05T16:01:43.409Z,1.67
2022-10-05T16:04:31.098Z,3.47
2022-10-05T16:07:34.108Z,2.25
2022-10-05T16:10:17.384Z,4.45
2022-10-05T16:13:08.173Z,2.58
2022-10-05T16:15:57.073Z,3.90
2022-10-05T16:18:46.960Z,3.08
2022-10-05T16:21:31.238Z,5.53
2022-10-05T16:24:21.708Z,3.92
2022-10-05T16:27:10.696Z,1.80
2022-10-05T16:29:56.106Z,4.93
2022-10-05T16:32:44.120Z,2.30
2022-10-05T16:35:31.198Z,2.15
2022-10-05T16:38:21.559Z,2.58
2022-10-05T16:41:09.183Z,2.55
2022-10-05T16:43:55.166Z,3.25
2022-10-05T16:46:40.836Z,2.70
2022-10-05T16:49:42.458Z,1.73
2022-10-05T16:52:27.996Z,2.67
2022-10-05T16:55:14.081Z,3.03
2022-10-05T16:57:57.747Z,3.63
2022-10-05T17:00:46.723Z,3.10
2022-10-05T17:03:34.745Z,3.35
2022-10-05T17:06:31.826Z,2.35
2022-10-05T17:09:43.284Z,2.53
2022-10-05T17:12:33.893Z,2.25
2022-10-05T17:15:29.649Z,2.85
2022-10-05T17:18:20.067Z,1.92
2022-10-05T17:21:08.105Z,3.50
2022-10-05T17:23:55.092Z,2.55
2022-10-05T17:26:47.133Z,2.42
2022-10-05T17:29:32.216Z,2.10
2022-10-05T17:32:48.378Z,1.90
2022-10-05T17:35:50.730Z,2.75
2022-10-05T17:38:45.482Z,3.83
2022-10-05T17:41:28.714Z,4.05
2022-10-05T17:44:27.967Z,3.10
2022-10-05T17:47:14.038Z,3.20
2022-10-05T17:50:16.033Z,3.05
2022-10-05T17:53:30.809Z,3.20
2022-10-05T17:56:13.800Z,5.60
2022-10-05T17:58:57.984Z,4.07
2022-10-05T18:01:42.269Z,3.13
2022-10-05T18:04:33.676Z,3.30
2022-10-05T18:07:20.811Z,2.97
2022-10-05T18:10:24.563Z,4.72
2022-10-05T18:13:19.362Z,3.28
2022-10-05T18:16:02.104Z,4.82
2022-10-05T18:18:59.677Z,4.53
2022-10-05T18:22:00.490Z,1.80
2022-10-05T18:25:03.585Z,2.60
2022-10-05T18:28:00.802Z,2.55
2022-10-05T18:30:55.269Z,3.38
2022-10-05T18:33:53.323Z,2.03
2022-10-05T18:36:48.267Z,4.63
2022-10-05T18:39:38.643Z,4.07
2022-10-05T18:42:27.281Z,3.28
2022-10-05T18:45:18.870Z,3.65
2022-10-05T18:48:09.169Z,4.25
2022-10-05T18:50:54.686Z,2.63
2022-10-05T18:53:42.376Z,2.85
2022-10-05T18:56:28.835Z,3.28
2022-10-05T18:59:20.273Z,2.22
2022-10-05T19:02:12.273Z,3.92
2022-10-05T19:05:03.856Z,2.13
2022-10-05T19:07:50.615Z,3.15
2022-10-05T19:10:39.611Z,2.85
2022-10-05T19:13:28.169Z,3.38
2022-10-05T19:16:26.139Z,4.80
2022-10-05T19:19:30.654Z,1.63
2022-10-05T19:22:17.922Z,3.83
2022-10-05T19:25:09.558Z,3.85
2022-10-05T19:28:01.317Z,1.42
2022-10-05T19:30:50.981Z,3.40
2022-10-05T19:33:38.879Z,4.85
2022-10-05T19:36:26.553Z,2.28
2022-10-05T19:39:11.786Z,2.55
2022-10-05T19:42:00.320Z,4.88
2022-10-05T19:44:49.003Z,2.95
2022-10-05T19:47:41.079Z,2.47
2022-10-05T19:50:28.149Z,2.33
2022-10-05T19:53:14.172Z,1.50
2022-10-05T19:55:56.846Z,1.63
2022-10-05T19:58:40.295Z,3.80
2022-10-05T20:01:25.932Z,3.40
2022-10-05T20:04:09.476Z,2.95
2022-10-05T20:06:52.325Z,3.47
2022-10-05T20:09:50.181Z,4.80
2022-10-05T20:12:48.703Z,1.52
2022-10-05T20:15:50.200Z,2.45
2022-10-05T20:19:06.418Z,2.75
2022-10-05T20:21:49.670Z,2.67
2022-10-05T20:24:50.010Z,3.65
2022-10-05T20:27:50.761Z,2.38
2022-10-05T20:30:33.966Z,2.20
2022-10-05T20:33:16.766Z,1.75
2022-10-05T20:36:03.559Z,2.38
2022-10-05T20:38:46.284Z,5.10
2022-10-05T20:41:28.997Z,2.08
2022-10-05T20:44:12.066Z,2.03
2022-10-05T20:46:55.283Z,5.72
2022-10-05T20:49:39.070Z,3.05
2022-10-05T20:52:23.347Z,5.35
2022-10-05T20:55:06.866Z,2.60
2022-10-05T20:57:49.543Z,2.53
2022-10-05T21:00:52.389Z,3.50
2022-10-05T21:03:35.141Z,3.03
2022-10-05T21:06:18.999Z,2.88
2022-10-05T21:09:03.075Z,2.50
2022-10-05T21:11:47.235Z,2.67
2022-10-05T21:14:34.132Z,2.63
2022-10-05T21:17:17.163Z,2.25
2022-10-05T21:19:59.957Z,3.30
2022-10-05T21:22:42.666Z,1.52
2022-10-05T21:25:26.990Z,2.38
2022-10-05T21:28:09.898Z,1.67
2022-10-05T21:30:52.522Z,1.52
2022-10-05T21:33:35.441Z,3.03
2022-10-05T21:36:22.470Z,2.08
2022-10-05T21:39:07.280Z,1.92
2022-10-05T21:41:51.316Z,1.65
2022-10-05T21:44:33.980Z,4.05
2022-10-05T21:47:16.763Z,2.58
2022-10-05T21:50:00.396Z,3.78
2022-10-05T21:52:43.187Z,2.03
2022-10-05T21:55:25.832Z,4.75
2022-10-05T21:58:09.813Z,5.07
2022-10-05T22:00:52.572Z,2.70
2022-10-05T22:03:35.319Z,4.00
2022-10-05T22:06:18.046Z,5.22
2022-10-05T22:09:00.668Z,4.70
2022-10-05T22:11:44.611Z,2.63
2022-10-05T22:14:28.740Z,2.42
2022-10-05T22:17:14.538Z,2.75
2022-10-05T22:19:58.066Z,2.33
2022-10-05T22:22:40.679Z,3.80
2022-10-05T22:25:23.735Z,2.05
2022-10-05T22:28:08.840Z,3.10
2022-10-05T22:30:52.912Z,2.38
2022-10-05T22:33:35.526Z,2.30
2022-10-05T22:36:18.547Z,3.58
2022-10-05T22:39:01.178Z,1.10
2022-10-05T22:41:44.134Z,2.55
2022-10-05T22:44:26.740Z,2.70
2022-10-05T22:47:10.768Z,1.45
2022-10-05T22:49:53.368Z,1.67
2022-10-05T22:52:36.048Z,2.33
2022-10-05T22:55:18.848Z,1.73
2022-10-05T22:58:02.197Z,1.15
2022-10-05T23:00:57.910Z,3.33
2022-10-05T23:03:42.800Z,1.83
2022-10-05T23:06:26.508Z,1.25
2022-10-05T23:09:09.171Z,3.15
2022-10-05T23:11:54.144Z,1.00
2022-10-05T23:14:36.824Z,0.77
2022-10-05T23:17:20.958Z,0.40
2022-10-05T23:20:05.237Z,0.95
2022-10-05T23:22:47.849Z,1.15
2022-10-05T23:25:30.532Z,1.27
2022-10-05T23:28:13.233Z,0.45
2022-10-05T23:30:58.617Z,0.98
2022-10-05T23:33:41.275Z,0.52
2022-10-05T23:36:26.545Z,2.15
2022-10-05T23:39:09.152Z,0.77
2022-10-05T23:41:51.835Z,0.77
2022-10-05T23:44:34.454Z,1.40
2022-10-05T23:47:17.169Z,0.35
2022-10-05T23:50:00.591Z,0.22
2022-10-05T23:52:44.631Z,1.30
2022-10-05T23:55:27.242Z,0.40
2022-10-05T23:58:10.096Z,0.80
